Time;durP1;ratioP1;P1;durP2;ratioP2;P2;SDS_P1;SDS_P2;PMS_P1;PMS_P2;Temp;Humidity;BMP_temperature;BMP_pressure;BME280_temperature;BME280_humidity;BME280_pressure;Samples;Min_cycle;Max_cycle;Signal;HPM_P1;HPM_P2
2022/08/08 00:02:10;;;;;;;8.65;2.95;;;;;;;;;;5040424;28;20024;-65
2022/08/08 00:04:41;;;;;;;8.00;3.30;;;;;;;;;;5037615;28;20450;-65
2022/08/08 00:07:19;;;;;;;10.30;3.70;;;;;;;;;;5040919;28;20027;-65
2022/08/08 00:09:52;;;;;;;11.68;3.85;;;;;;;;;;5043597;28;20495;-65
2022/08/08 00:12:20;;;;;;;8.75;3.53;;;;;;;;;;5033618;28;20028;-65
2022/08/08 00:14:57;;;;;;;9.43;3.42;;;;;;;;;;5035013;28;20158;-65
2022/08/08 00:17:30;;;;;;;7.95;3.10;;;;;;;;;;5031768;28;20241;-65
2022/08/08 00:20:05;;;;;;;8.93;3.78;;;;;;;;;;5040092;28;20021;-65
2022/08/08 00:22:46;;;;;;;9.03;3.43;;;;;;;;;;5035159;28;20455;-67
2022/08/08 00:25:24;;;;;;;9.38;3.35;;;;;;;;;;5039771;28;20147;-65
2022/08/08 00:27:52;;;;;;;9.07;3.45;;;;;;;;;;5040260;28;20399;-65
2022/08/08 00:30:18;;;;;;;14.20;3.70;;;;;;;;;;5036064;28;20557;-64
2022/08/08 00:32:47;;;;;;;11.25;3.45;;;;;;;;;;5037125;28;20032;-64
2022/08/08 00:35:24;;;;;;;8.77;3.45;;;;;;;;;;5035311;28;20119;-65
2022/08/08 00:38:00;;;;;;;10.32;3.30;;;;;;;;;;5039062;28;20040;-65
2022/08/08 00:40:26;;;;;;;;;;;;;;;;;;5035285;28;20032;-64
2022/08/08 00:42:52;;;;;;;9.57;3.15;;;;;;;;;;5045050;28;19908;-64
2022/08/08 00:45:19;;;;;;;7.72;3.15;;;;;;;;;;5040728;28;20308;-64
2022/08/08 00:48:04;;;;;;;10.82;3.28;;;;;;;;;;5042720;28;20525;-64
2022/08/08 00:50:49;;;;;;;9.73;3.27;;;;;;;;;;5038403;28;21891;-64
2022/08/08 00:53:15;;;;;;;7.68;3.00;;;;;;;;;;5040997;28;20079;-64
2022/08/08 00:55:42;;;;;;;8.70;2.92;;;;;;;;;;5043894;28;20028;-64
2022/08/08 00:58:17;;;;;;;7.57;3.10;;;;;;;;;;5042346;28;20016;-64
2022/08/08 01:00:51;;;;;;;8.98;2.97;;;;;;;;;;5043797;28;20061;-64
2022/08/08 01:03:35;;;;;;;7.43;2.88;;;;;;;;;;5057019;28;20027;-65
2022/08/08 01:06:04;;;;;;;9.35;2.90;;;;;;;;;;5043989;28;20040;-64
2022/08/08 01:08:49;;;;;;;7.85;2.90;;;;;;;;;;5041022;28;20148;-64
2022/08/08 01:11:15;;;;;;;10.75;3.05;;;;;;;;;;5038009;28;20129;-63
2022/08/08 01:13:47;;;;;;;10.60;3.10;;;;;;;;;;5040727;28;20816;-65
2022/08/08 01:16:32;;;;;;;10.48;3.20;;;;;;;;;;5039254;28;20481;-65
2022/08/08 01:18:58;;;;;;;10.65;3.10;;;;;;;;;;5044310;28;21035;-64
2022/08/08 01:21:47;;;;;;;8.45;3.30;;;;;;;;;;5043885;28;20566;-64
2022/08/08 01:24:22;;;;;;;8.90;2.90;;;;;;;;;;4937520;28;20093;-64
2022/08/08 01:27:07;;;;;;;9.43;3.05;;;;;;;;;;4957823;28;20050;-64
2022/08/08 01:29:39;;;;;;;9.82;3.00;;;;;;;;;;4956660;28;20038;-64
2022/08/08 01:32:06;;;;;;;6.88;2.42;;;;;;;;;;4939992;28;20723;-64
2022/08/08 01:34:34;;;;;;;7.22;2.83;;;;;;;;;;4956962;28;20080;-64
2022/08/08 01:37:01;;;;;;;7.50;2.72;;;;;;;;;;4941047;28;20593;-67
2022/08/08 01:39:27;;;;;;;7.57;2.78;;;;;;;;;;4937145;28;20537;-64
2022/08/08 01:42:03;;;;;;;8.45;2.50;;;;;;;;;;4959459;28;20452;-64
2022/08/08 01:44:29;;;;;;;7.00;2.40;;;;;;;;;;4952527;28;20085;-64
2022/08/08 01:47:16;;;;;;;8.80;2.88;;;;;;;;;;4957718;28;20058;-64
2022/08/08 01:49:48;;;;;;;8.50;2.92;;;;;;;;;;4957126;28;20481;-65
2022/08/08 01:52:32;;;;;;;6.38;2.40;;;;;;;;;;4950162;28;20050;-64
2022/08/08 01:55:27;;;;;;;8.43;2.92;;;;;;;;;;4955669;28;20069;-64
2022/08/08 01:57:56;;;;;;;7.40;2.63;;;;;;;;;;4901460;29;20035;-64
2022/08/08 02:00:34;;;;;;;7.60;2.60;;;;;;;;;;4900098;28;20043;-64
2022/08/08 02:03:06;;;;;;;9.55;2.95;;;;;;;;;;4932252;28;21379;-64
2022/08/08 02:05:35;;;;;;;6.10;2.45;;;;;;;;;;4919816;28;20046;-64
2022/08/08 02:08:10;;;;;;;10.63;2.90;;;;;;;;;;4922921;28;20083;-65
2022/08/08 02:10:57;;;;;;;8.57;2.65;;;;;;;;;;4921285;28;20034;-64
2022/08/08 02:13:28;;;;;;;6.65;2.45;;;;;;;;;;4937364;28;20394;-65
2022/08/08 02:16:01;;;;;;;7.97;2.63;;;;;;;;;;4936651;28;20047;-64
2022/08/08 02:18:35;;;;;;;6.95;2.33;;;;;;;;;;4933909;28;20469;-67
2022/08/08 02:24:16;;;;;;;6.90;2.50;;;;;;;;;;4937194;28;20042;-64
2022/08/08 02:26:50;;;;;;;7.60;2.50;;;;;;;;;;4938995;28;20125;-65
2022/08/08 02:29:30;;;;;;;7.05;2.70;;;;;;;;;;4935154;28;20047;-65
2022/08/08 02:32:19;;;;;;;6.65;2.40;;;;;;;;;;4937925;28;20508;-65
2022/08/08 02:34:55;;;;;;;7.35;2.15;;;;;;;;;;4978919;28;20052;-65
2022/08/08 02:37:28;;;;;;;8.90;2.63;;;;;;;;;;5038436;28;20036;-65
2022/08/08 02:40:03;;;;;;;8.18;2.42;;;;;;;;;;5041219;28;20143;-65
2022/08/08 02:42:47;;;;;;;8.88;2.90;;;;;;;;;;5040228;28;20057;-65
2022/08/08 02:45:16;;;;;;;8.32;2.70;;;;;;;;;;5036692;28;20024;-65
2022/08/08 02:48:03;;;;;;;8.50;2.50;;;;;;;;;;5037129;28;20110;-65
2022/08/08 02:50:47;;;;;;;7.05;2.50;;;;;;;;;;5035624;28;20087;-65
2022/08/08 02:53:31;;;;;;;8.90;2.90;;;;;;;;;;5039451;28;20033;-66
2022/08/08 02:56:16;;;;;;;7.22;2.50;;;;;;;;;;5056419;28;20916;-65
2022/08/08 02:59:01;;;;;;;7.55;2.40;;;;;;;;;;5037827;28;20420;-66
2022/08/08 03:01:46;;;;;;;6.78;2.55;;;;;;;;;;5034608;28;20761;-65
2022/08/08 03:04:31;;;;;;;6.60;2.40;;;;;;;;;;5036890;28;20044;-66
2022/08/08 03:07:09;;;;;;;7.22;2.58;;;;;;;;;;5038259;28;20059;-66
2022/08/08 03:09:47;;;;;;;8.00;2.50;;;;;;;;;;5037692;28;20477;-65
2022/08/08 03:12:13;;;;;;;10.43;2.70;;;;;;;;;;5033786;28;20050;-65
2022/08/08 03:14:42;;;;;;;5.90;2.40;;;;;;;;;;5040582;28;20062;-65
2022/08/08 03:17:27;;;;;;;7.50;2.75;;;;;;;;;;5037220;28;20588;-66
2022/08/08 03:20:05;;;;;;;7.57;2.80;;;;;;;;;;5037202;28;20646;-65
2022/08/08 03:22:34;;;;;;;7.10;2.53;;;;;;;;;;5034202;28;20062;-65
2022/08/08 03:25:02;;;;;;;9.25;2.85;;;;;;;;;;5045592;28;20650;-65
2022/08/08 03:27:42;;;;;;;6.88;2.72;;;;;;;;;;5035727;28;20039;-65
2022/08/08 03:30:09;;;;;;;7.50;2.58;;;;;;;;;;5040182;28;20040;-66
2022/08/08 03:35:22;;;;;;;6.50;2.72;;;;;;;;;;5035074;28;20063;-65
2022/08/08 03:37:49;;;;;;;7.05;2.90;;;;;;;;;;5039213;28;20377;-65
2022/08/08 03:40:19;;;;;;;7.15;2.40;;;;;;;;;;5035234;28;20028;-65
2022/08/08 03:42:45;;;;;;;8.02;2.92;;;;;;;;;;5038317;28;20028;-65
2022/08/08 03:45:13;;;;;;;7.00;2.80;;;;;;;;;;5036497;28;21392;-65
2022/08/08 03:47:39;;;;;;;6.50;2.53;;;;;;;;;;5034484;28;20043;-66
2022/08/08 03:50:14;;;;;;;11.57;2.88;;;;;;;;;;5037117;28;20044;-66
2022/08/08 03:52:40;;;;;;;8.45;2.92;;;;;;;;;;5049488;28;20037;-65
2022/08/08 03:55:16;;;;;;;9.02;2.67;;;;;;;;;;5037849;28;20088;-63
2022/08/08 03:57:52;;;;;;;6.22;2.55;;;;;;;;;;5038083;28;20028;-66
2022/08/08 04:00:20;;;;;;;7.00;2.70;;;;;;;;;;5031491;28;20028;-65
2022/08/08 04:02:54;;;;;;;9.18;2.70;;;;;;;;;;5038426;28;20039;-63
2022/08/08 04:05:20;;;;;;;7.80;3.00;;;;;;;;;;5032672;28;20029;-64
2022/08/08 04:07:46;;;;;;;8.02;2.72;;;;;;;;;;5038486;28;20546;-66
2022/08/08 04:10:12;;;;;;;9.35;2.83;;;;;;;;;;5039821;28;20044;-63
2022/08/08 04:12:40;;;;;;;7.90;2.95;;;;;;;;;;5036655;28;20206;-63
2022/08/08 04:15:06;;;;;;;7.25;2.55;;;;;;;;;;5039613;28;20020;-63
2022/08/08 04:17:32;;;;;;;8.40;2.78;;;;;;;;;;5034912;28;20048;-64
2022/08/08 04:19:58;;;;;;;7.72;2.55;;;;;;;;;;5037227;28;20527;-63
2022/08/08 04:22:26;;;;;;;6.55;2.47;;;;;;;;;;5034234;28;20370;-64
2022/08/08 04:24:53;;;;;;;8.07;2.72;;;;;;;;;;5043322;28;20028;-64
2022/08/08 04:27:19;;;;;;;11.35;3.00;;;;;;;;;;5037557;28;20036;-65
2022/08/08 04:29:45;;;;;;;7.68;2.80;;;;;;;;;;5040860;28;20024;-65
2022/08/08 04:32:14;;;;;;;8.00;2.80;;;;;;;;;;5033497;28;20128;-64
2022/08/08 04:34:41;;;;;;;8.45;3.08;;;;;;;;;;5042793;28;20371;-65
2022/08/08 04:37:07;;;;;;;7.53;2.83;;;;;;;;;;5040006;28;20621;-64
2022/08/08 04:39:33;;;;;;;11.85;3.35;;;;;;;;;;5035630;28;20035;-65
2022/08/08 04:41:59;;;;;;;8.82;2.90;;;;;;;;;;5040031;28;20040;-65
2022/08/08 04:44:26;;;;;;;8.18;3.00;;;;;;;;;;5035791;28;20082;-65
2022/08/08 04:46:52;;;;;;;12.30;3.20;;;;;;;;;;5039337;28;20031;-65
2022/08/08 04:49:18;;;;;;;10.13;3.10;;;;;;;;;;5037684;28;20032;-66
2022/08/08 04:51:44;;;;;;;10.85;3.15;;;;;;;;;;5040732;28;20045;-64
2022/08/08 04:54:10;;;;;;;8.20;2.95;;;;;;;;;;5035757;28;20523;-65
2022/08/08 04:56:36;;;;;;;9.10;2.90;;;;;;;;;;5040481;28;20105;-65
2022/08/08 04:59:02;;;;;;;10.45;3.20;;;;;;;;;;5033100;28;20056;-65
2022/08/08 05:01:28;;;;;;;9.88;2.72;;;;;;;;;;5038222;28;24161;-65
2022/08/08 05:03:54;;;;;;;7.85;2.92;;;;;;;;;;5039242;28;20102;-65
2022/08/08 05:06:20;;;;;;;8.30;2.80;;;;;;;;;;5034385;28;20044;-65
2022/08/08 05:08:47;;;;;;;8.13;2.72;;;;;;;;;;5037771;28;20493;-65
2022/08/08 05:11:13;;;;;;;7.05;2.90;;;;;;;;;;5037469;28;20047;-65
2022/08/08 05:13:40;;;;;;;6.80;2.70;;;;;;;;;;5039979;28;20024;-65
2022/08/08 05:16:06;;;;;;;11.10;2.60;;;;;;;;;;5043000;28;21144;-65
2022/08/08 05:18:33;;;;;;;7.35;2.53;;;;;;;;;;5036916;28;20125;-65
2022/08/08 05:20:59;;;;;;;9.18;2.80;;;;;;;;;;5054181;28;20144;-65
2022/08/08 05:23:25;;;;;;;10.98;3.00;;;;;;;;;;5036338;28;20386;-65
2022/08/08 05:25:52;;;;;;;9.35;2.80;;;;;;;;;;5037526;28;20031;-65
2022/08/08 05:28:18;;;;;;;9.43;3.17;;;;;;;;;;5037119;28;20386;-65
2022/08/08 05:30:44;;;;;;;11.15;3.35;;;;;;;;;;5040121;28;20039;-65
2022/08/08 05:33:10;;;;;;;9.63;3.55;;;;;;;;;;5039258;28;20722;-66
2022/08/08 05:35:38;;;;;;;8.30;3.08;;;;;;;;;;5042621;28;20633;-65
2022/08/08 05:38:05;;;;;;;8.70;3.08;;;;;;;;;;5040829;28;20065;-64
2022/08/08 05:40:33;;;;;;;10.05;3.60;;;;;;;;;;5037010;28;20020;-65
2022/08/08 05:43:02;;;;;;;11.25;3.30;;;;;;;;;;5056656;28;20115;-65
2022/08/08 05:45:29;;;;;;;15.48;3.50;;;;;;;;;;5037297;28;20055;-65
2022/08/08 05:47:56;;;;;;;15.38;3.42;;;;;;;;;;5039416;28;20545;-65
2022/08/08 05:50:24;;;;;;;11.48;3.20;;;;;;;;;;5043909;28;20060;-65
2022/08/08 05:52:51;;;;;;;17.17;3.90;;;;;;;;;;5037205;28;20029;-66
2022/08/08 05:55:17;;;;;;;13.02;3.70;;;;;;;;;;5045238;28;20090;-63
2022/08/08 05:57:44;;;;;;;14.40;3.88;;;;;;;;;;5045573;28;20028;-66
2022/08/08 06:00:10;;;;;;;21.02;3.90;;;;;;;;;;5044971;28;21004;-66
2022/08/08 06:05:22;;;;;;;13.98;3.60;;;;;;;;;;5037360;28;20043;-65
2022/08/08 06:07:49;;;;;;;17.05;3.17;;;;;;;;;;5044237;28;20827;-64
2022/08/08 06:10:16;;;;;;;12.18;3.25;;;;;;;;;;5038376;28;20090;-65
2022/08/08 06:12:42;;;;;;;8.07;2.83;;;;;;;;;;5041369;28;20147;-65
2022/08/08 06:15:10;;;;;;;10.80;3.22;;;;;;;;;;5047122;28;20033;-65
2022/08/08 06:17:37;;;;;;;11.23;3.10;;;;;;;;;;5045370;28;20584;-66
2022/08/08 06:20:05;;;;;;;13.00;2.78;;;;;;;;;;5042419;28;20450;-65
2022/08/08 06:22:31;;;;;;;10.98;3.20;;;;;;;;;;5044407;28;20386;-65
2022/08/08 06:24:57;;;;;;;11.60;2.78;;;;;;;;;;5043046;28;20032;-65
2022/08/08 06:27:46;;;;;;;15.05;4.20;;;;;;;;;;5043724;28;20434;-65
2022/08/08 06:30:14;;;;;;;13.85;4.40;;;;;;;;;;5032043;28;20085;-64
2022/08/08 06:32:45;;;;;;;11.77;3.65;;;;;;;;;;5042330;28;20560;-63
2022/08/08 06:35:12;;;;;;;15.48;4.30;;;;;;;;;;5054250;28;20033;-64
2022/08/08 06:37:42;;;;;;;19.88;4.22;;;;;;;;;;5037539;28;20021;-66
2022/08/08 06:40:13;;;;;;;14.38;3.60;;;;;;;;;;5052350;28;20116;-64
2022/08/08 06:42:40;;;;;;;9.55;3.15;;;;;;;;;;5038916;28;20509;-63
2022/08/08 06:45:07;;;;;;;16.45;4.25;;;;;;;;;;5042454;28;20050;-64
2022/08/08 06:47:36;;;;;;;12.73;3.47;;;;;;;;;;5038111;28;20032;-64
2022/08/08 06:50:02;;;;;;;11.75;3.40;;;;;;;;;;5042206;28;20060;-65
2022/08/08 06:52:29;;;;;;;10.57;3.20;;;;;;;;;;5054598;28;20058;-64
2022/08/08 06:54:57;;;;;;;11.82;3.38;;;;;;;;;;5039752;28;20425;-64
2022/08/08 06:57:23;;;;;;;9.70;3.15;;;;;;;;;;5037292;28;20522;-65
2022/08/08 06:59:50;;;;;;;11.05;3.20;;;;;;;;;;5044264;28;20445;-65
2022/08/08 07:02:22;;;;;;;9.82;3.00;;;;;;;;;;5041303;28;20025;-65
2022/08/08 07:04:51;;;;;;;10.45;3.22;;;;;;;;;;5047551;28;20303;-65
2022/08/08 07:07:22;;;;;;;10.02;3.10;;;;;;;;;;5037669;28;20350;-65
2022/08/08 07:10:00;;;;;;;8.75;3.00;;;;;;;;;;5038339;28;20024;-65
2022/08/08 07:12:45;;;;;;;10.75;2.83;;;;;;;;;;5036625;28;20033;-65
2022/08/08 07:15:12;;;;;;;9.15;2.60;;;;;;;;;;5035227;28;20029;-65
2022/08/08 07:17:51;;;;;;;11.60;3.00;;;;;;;;;;5041892;28;20486;-65
2022/08/08 07:20:24;;;;;;;12.25;2.90;;;;;;;;;;5038770;28;20371;-65
2022/08/08 07:23:06;;;;;;;11.43;2.80;;;;;;;;;;5040815;28;20322;-65
2022/08/08 07:25:33;;;;;;;10.30;3.20;;;;;;;;;;5042620;28;20071;-66
2022/08/08 07:28:10;;;;;;;10.43;2.72;;;;;;;;;;5046132;28;20065;-65
2022/08/08 07:30:37;;;;;;;7.95;3.20;;;;;;;;;;5040890;28;20210;-65
2022/08/08 07:33:03;;;;;;;10.82;3.30;;;;;;;;;;5041182;28;20035;-64
2022/08/08 07:35:30;;;;;;;9.95;2.90;;;;;;;;;;5053939;28;20186;-65
2022/08/08 07:37:56;;;;;;;8.05;2.80;;;;;;;;;;5037402;28;20322;-65
2022/08/08 07:40:23;;;;;;;8.73;2.75;;;;;;;;;;5035944;28;20086;-65
2022/08/08 07:42:52;;;;;;;7.10;2.45;;;;;;;;;;5039870;28;20075;-65
2022/08/08 07:45:18;;;;;;;7.10;2.67;;;;;;;;;;5039476;28;20491;-65
2022/08/08 07:47:44;;;;;;;10.40;3.00;;;;;;;;;;5036934;28;20024;-65
2022/08/08 07:50:10;;;;;;;7.70;2.90;;;;;;;;;;5037262;28;20040;-65
2022/08/08 07:52:38;;;;;;;8.95;3.05;;;;;;;;;;5041058;28;20516;-64
2022/08/08 07:55:09;;;;;;;9.70;3.47;;;;;;;;;;5035958;28;20026;-67
2022/08/08 07:57:44;;;;;;;9.10;3.03;;;;;;;;;;5040328;28;20055;-64
2022/08/08 08:00:12;;;;;;;7.55;2.78;;;;;;;;;;5037442;28;20907;-65
2022/08/08 08:02:41;;;;;;;11.20;3.10;;;;;;;;;;5045135;28;20039;-65
2022/08/08 08:05:19;;;;;;;9.32;3.42;;;;;;;;;;5038102;28;20530;-65
2022/08/08 08:07:47;;;;;;;9.95;3.10;;;;;;;;;;5037501;28;20385;-65
2022/08/08 08:10:16;;;;;;;9.15;3.00;;;;;;;;;;5038100;28;20686;-65
2022/08/08 08:12:47;;;;;;;9.95;2.58;;;;;;;;;;5042283;28;20040;-65
2022/08/08 08:15:15;;;;;;;8.60;2.72;;;;;;;;;;5037211;28;20847;-65
2022/08/08 08:17:44;;;;;;;8.60;2.58;;;;;;;;;;5057553;28;20485;-65
2022/08/08 08:20:10;;;;;;;8.77;3.00;;;;;;;;;;5050648;28;20024;-68
2022/08/08 08:22:36;;;;;;;10.95;3.17;;;;;;;;;;5042190;28;20032;-65
2022/08/08 08:25:03;;;;;;;8.48;3.08;;;;;;;;;;5041495;28;20094;-64
2022/08/08 08:27:29;;;;;;;8.85;2.88;;;;;;;;;;5033420;28;20028;-65
2022/08/08 08:29:55;;;;;;;7.85;2.80;;;;;;;;;;5038706;28;20111;-65
2022/08/08 08:32:21;;;;;;;8.20;2.90;;;;;;;;;;5034265;28;20513;-66
2022/08/08 08:34:49;;;;;;;8.77;2.92;;;;;;;;;;5037951;28;20024;-65
2022/08/08 08:37:15;;;;;;;8.15;2.45;;;;;;;;;;5034579;28;20029;-65
2022/08/08 08:39:41;;;;;;;8.25;2.72;;;;;;;;;;5031845;28;20475;-66
2022/08/08 08:42:08;;;;;;;9.90;2.90;;;;;;;;;;5042059;28;20039;-65
2022/08/08 08:44:34;;;;;;;13.13;3.35;;;;;;;;;;5039402;28;20910;-66
2022/08/08 08:47:01;;;;;;;7.65;2.80;;;;;;;;;;5035958;28;20036;-66
2022/08/08 08:49:27;;;;;;;9.35;2.90;;;;;;;;;;5034484;28;20035;-66
2022/08/08 08:51:56;;;;;;;8.80;2.55;;;;;;;;;;5038345;28;20153;-65
2022/08/08 08:54:23;;;;;;;6.72;2.75;;;;;;;;;;5038299;28;20131;-65
2022/08/08 08:56:49;;;;;;;8.50;2.50;;;;;;;;;;5040885;28;20324;-65
2022/08/08 08:59:17;;;;;;;6.75;2.13;;;;;;;;;;5039353;28;20050;-65
2022/08/08 09:01:44;;;;;;;7.68;2.38;;;;;;;;;;5033453;28;20029;-65
2022/08/08 09:04:13;;;;;;;7.15;2.30;;;;;;;;;;5043574;28;20024;-65
2022/08/08 09:06:40;;;;;;;7.50;2.30;;;;;;;;;;5041489;28;20157;-65
2022/08/08 09:09:17;;;;;;;7.47;2.38;;;;;;;;;;5044061;28;20035;-65
2022/08/08 09:11:45;;;;;;;9.32;2.28;;;;;;;;;;5039071;28;20080;-65
2022/08/08 09:14:11;;;;;;;7.30;2.28;;;;;;;;;;5038518;28;20024;-65
2022/08/08 09:16:38;;;;;;;10.32;2.63;;;;;;;;;;5039805;28;20036;-66
2022/08/08 09:19:04;;;;;;;8.05;2.28;;;;;;;;;;5039542;28;20036;-65
2022/08/08 09:21:31;;;;;;;10.85;2.10;;;;;;;;;;5039134;28;20561;-65
2022/08/08 09:23:57;;;;;;;6.82;2.05;;;;;;;;;;5042575;28;20051;-65
2022/08/08 09:26:29;;;;;;;6.78;2.15;;;;;;;;;;5039707;28;20037;-65
2022/08/08 09:28:57;;;;;;;5.40;1.83;;;;;;;;;;5041378;28;20028;-65
2022/08/08 09:31:55;;;;;;;5.97;2.30;;;;;;;;;;5039603;28;20048;-65
2022/08/08 09:34:24;;;;;;;5.90;1.95;;;;;;;;;;4994322;28;20053;-64
2022/08/08 09:36:54;;;;;;;7.65;2.05;;;;;;;;;;5000115;28;20494;-65
2022/08/08 09:39:20;;;;;;;10.63;2.60;;;;;;;;;;4992633;28;20106;-65
2022/08/08 09:41:54;;;;;;;8.00;2.10;;;;;;;;;;4983346;28;20299;-65
2022/08/08 09:44:23;;;;;;;7.63;1.98;;;;;;;;;;4996060;28;20433;-65
2022/08/08 09:46:50;;;;;;;7.50;2.00;;;;;;;;;;5000873;28;20036;-64
2022/08/08 09:49:17;;;;;;;7.38;2.20;;;;;;;;;;4997486;28;20075;-65
2022/08/08 09:51:47;;;;;;;7.45;2.10;;;;;;;;;;4987322;28;20051;-65
2022/08/08 09:54:16;;;;;;;6.40;2.08;;;;;;;;;;4991732;28;20553;-65
2022/08/08 09:56:46;;;;;;;8.65;2.10;;;;;;;;;;4997627;28;21424;-65
2022/08/08 09:59:17;;;;;;;5.97;2.10;;;;;;;;;;4993836;28;20886;-65
2022/08/08 10:01:45;;;;;;;10.88;2.17;;;;;;;;;;4997964;28;20033;-64
2022/08/08 10:04:15;;;;;;;6.85;2.42;;;;;;;;;;4991476;28;20045;-65
2022/08/08 10:06:43;;;;;;;7.20;2.10;;;;;;;;;;4998650;28;20037;-65
2022/08/08 10:09:09;;;;;;;5.13;1.90;;;;;;;;;;5002749;28;20046;-66
2022/08/08 10:11:37;;;;;;;7.00;1.95;;;;;;;;;;5037143;28;20040;-65
2022/08/08 10:14:06;;;;;;;7.57;2.00;;;;;;;;;;5043787;28;20081;-65
2022/08/08 10:16:41;;;;;;;10.13;1.95;;;;;;;;;;5041115;28;20025;-65
2022/08/08 10:19:10;;;;;;;4.95;1.92;;;;;;;;;;5039529;28;20469;-65
2022/08/08 10:21:36;;;;;;;7.03;1.98;;;;;;;;;;5041566;28;20040;-65
2022/08/08 10:24:04;;;;;;;10.88;2.13;;;;;;;;;;5043511;28;20143;-65
2022/08/08 10:26:42;;;;;;;4.97;1.95;;;;;;;;;;5039559;28;20031;-66
2022/08/08 10:29:09;;;;;;;7.10;2.30;;;;;;;;;;5040737;28;20557;-65
2022/08/08 10:34:23;;;;;;;9.13;2.28;;;;;;;;;;5040176;28;20043;-65
2022/08/08 10:36:49;;;;;;;7.13;2.08;;;;;;;;;;5040686;28;20025;-66
2022/08/08 10:39:22;;;;;;;7.03;2.20;;;;;;;;;;5035322;28;20272;-67
2022/08/08 10:41:56;;;;;;;6.57;2.00;;;;;;;;;;5041432;28;20517;-66
2022/08/08 10:44:41;;;;;;;7.22;1.90;;;;;;;;;;5036333;28;20028;-68
2022/08/08 10:47:15;;;;;;;6.63;1.98;;;;;;;;;;5034874;28;20036;-66
2022/08/08 10:49:42;;;;;;;7.05;2.10;;;;;;;;;;5037230;28;20036;-66
2022/08/08 10:52:08;;;;;;;7.10;2.33;;;;;;;;;;5035306;28;20036;-66
2022/08/08 10:54:35;;;;;;;10.00;2.08;;;;;;;;;;5036993;28;20033;-66
2022/08/08 10:57:03;;;;;;;7.38;1.90;;;;;;;;;;5036796;28;20032;-66
2022/08/08 10:59:29;;;;;;;6.65;2.20;;;;;;;;;;5036081;28;21002;-66
2022/08/08 11:01:55;;;;;;;7.70;1.80;;;;;;;;;;5040765;28;20117;-67
2022/08/08 11:04:21;;;;;;;6.35;2.13;;;;;;;;;;5038881;28;20450;-67
2022/08/08 11:06:47;;;;;;;6.32;1.77;;;;;;;;;;5041376;28;20513;-66
2022/08/08 11:09:14;;;;;;;6.13;1.90;;;;;;;;;;5032609;28;20177;-66
2022/08/08 11:11:42;;;;;;;6.50;1.92;;;;;;;;;;5037710;28;20032;-67
2022/08/08 11:14:09;;;;;;;5.55;1.85;;;;;;;;;;5042212;28;20064;-66
2022/08/08 11:16:36;;;;;;;7.57;2.03;;;;;;;;;;5039015;28;20039;-66
2022/08/08 11:19:03;;;;;;;10.48;2.47;;;;;;;;;;5037538;28;20040;-66
2022/08/08 11:21:39;;;;;;;7.72;2.10;;;;;;;;;;5036859;28;20784;-66
2022/08/08 11:24:08;;;;;;;8.07;2.00;;;;;;;;;;5040596;28;20033;-66
2022/08/08 11:26:35;;;;;;;8.57;2.25;;;;;;;;;;5042555;28;20023;-66
2022/08/08 11:29:03;;;;;;;8.57;2.20;;;;;;;;;;5056361;28;20034;-67
2022/08/08 11:31:33;;;;;;;7.90;2.47;;;;;;;;;;5041314;28;20887;-67
2022/08/08 11:34:02;;;;;;;12.00;2.83;;;;;;;;;;5043184;28;20601;-66
2022/08/08 11:36:28;;;;;;;12.52;2.38;;;;;;;;;;5035578;28;20539;-66
2022/08/08 11:38:55;;;;;;;5.82;1.77;;;;;;;;;;5038790;28;20390;-69
2022/08/08 11:41:22;;;;;;;7.40;2.10;;;;;;;;;;5038410;28;20024;-66
2022/08/08 11:43:49;;;;;;;7.28;2.13;;;;;;;;;;5040270;28;20122;-66
2022/08/08 11:46:15;;;;;;;6.40;1.92;;;;;;;;;;5031792;28;20978;-65
2022/08/08 11:48:41;;;;;;;7.93;2.22;;;;;;;;;;5037285;28;20597;-66
2022/08/08 11:51:08;;;;;;;9.65;2.30;;;;;;;;;;5037092;28;20131;-66
2022/08/08 11:53:34;;;;;;;8.73;2.67;;;;;;;;;;5035134;28;20040;-65
2022/08/08 11:56:02;;;;;;;7.53;2.20;;;;;;;;;;5037316;28;20155;-65
2022/08/08 11:58:32;;;;;;;11.00;2.35;;;;;;;;;;5033243;28;20386;-65
2022/08/08 12:00:58;;;;;;;7.70;1.98;;;;;;;;;;5037822;28;20059;-65
2022/08/08 12:03:25;;;;;;;7.88;2.20;;;;;;;;;;5032409;28;20619;-66
2022/08/08 12:05:52;;;;;;;8.85;2.20;;;;;;;;;;5040052;28;20442;-69
2022/08/08 12:08:31;;;;;;;7.35;1.90;;;;;;;;;;5035128;28;20040;-66
2022/08/08 12:10:59;;;;;;;6.93;1.95;;;;;;;;;;5037193;28;20040;-65
2022/08/08 12:13:26;;;;;;;7.18;1.73;;;;;;;;;;5035801;28;20028;-68
2022/08/08 12:15:52;;;;;;;7.88;1.70;;;;;;;;;;5039443;28;20032;-65
2022/08/08 12:18:19;;;;;;;8.45;2.13;;;;;;;;;;5034327;28;20493;-65
2022/08/08 12:20:46;;;;;;;6.35;2.08;;;;;;;;;;5037250;28;20239;-66
2022/08/08 12:23:12;;;;;;;9.57;1.88;;;;;;;;;;5036922;28;20482;-66
2022/08/08 12:25:38;;;;;;;9.48;2.42;;;;;;;;;;5039326;28;20040;-66
2022/08/08 12:28:12;;;;;;;9.18;2.22;;;;;;;;;;5036881;28;20557;-67
2022/08/08 12:30:38;;;;;;;7.20;1.90;;;;;;;;;;5037602;28;20050;-67
2022/08/08 12:33:15;;;;;;;8.38;2.63;;;;;;;;;;5041109;28;20047;-67
2022/08/08 12:35:42;;;;;;;7.63;1.80;;;;;;;;;;5035957;28;20107;-67
2022/08/08 12:38:10;;;;;;;6.53;1.90;;;;;;;;;;5044168;28;20040;-67
2022/08/08 12:40:39;;;;;;;6.93;2.05;;;;;;;;;;5040424;28;20028;-66
2022/08/08 12:43:06;;;;;;;6.95;1.80;;;;;;;;;;5041256;28;20062;-65
2022/08/08 12:45:33;;;;;;;8.43;1.98;;;;;;;;;;5034401;28;20073;-66
2022/08/08 12:48:00;;;;;;;6.43;1.90;;;;;;;;;;5042527;28;20528;-66
2022/08/08 12:50:37;;;;;;;6.88;2.03;;;;;;;;;;5037021;28;20044;-66
2022/08/08 12:53:03;;;;;;;7.30;1.90;;;;;;;;;;5044273;28;20032;-65
2022/08/08 12:55:29;;;;;;;8.60;2.00;;;;;;;;;;5037785;28;24869;-65
2022/08/08 12:57:55;;;;;;;7.18;1.75;;;;;;;;;;5037909;28;20333;-65
2022/08/08 13:00:27;;;;;;;6.32;1.67;;;;;;;;;;5036223;28;20028;-66
2022/08/08 13:02:57;;;;;;;6.70;2.05;;;;;;;;;;5052945;28;20025;-66
2022/08/08 13:05:23;;;;;;;10.15;2.20;;;;;;;;;;5037231;28;20059;-65
2022/08/08 13:07:49;;;;;;;6.93;1.80;;;;;;;;;;5043332;28;20494;-65
2022/08/08 13:10:17;;;;;;;7.93;1.90;;;;;;;;;;5039831;28;21148;-66
2022/08/08 13:12:44;;;;;;;6.78;1.85;;;;;;;;;;5046105;28;20577;-65
2022/08/08 13:15:11;;;;;;;8.98;2.20;;;;;;;;;;5039596;28;20029;-67
2022/08/08 13:17:38;;;;;;;6.53;1.80;;;;;;;;;;5044648;28;20031;-65
2022/08/08 13:20:11;;;;;;;8.98;2.38;;;;;;;;;;5045560;28;20039;-66
2022/08/08 13:22:38;;;;;;;8.10;1.80;;;;;;;;;;5045724;28;20036;-66
2022/08/08 13:25:04;;;;;;;5.45;1.85;;;;;;;;;;5043721;28;20028;-65
2022/08/08 13:27:31;;;;;;;6.35;2.05;;;;;;;;;;5039057;28;20033;-66
2022/08/08 13:30:04;;;;;;;7.80;1.88;;;;;;;;;;5039009;28;20033;-65
2022/08/08 13:32:34;;;;;;;9.93;1.88;;;;;;;;;;5042923;28;20040;-65
2022/08/08 13:35:01;;;;;;;8.07;2.05;;;;;;;;;;5043676;28;20041;-68
2022/08/08 13:37:28;;;;;;;7.72;1.90;;;;;;;;;;5037461;28;20074;-65
2022/08/08 13:39:55;;;;;;;6.43;1.70;;;;;;;;;;5043193;28;20066;-65
2022/08/08 13:42:22;;;;;;;7.57;1.70;;;;;;;;;;5039014;28;20028;-66
2022/08/08 13:44:55;;;;;;;6.82;1.90;;;;;;;;;;5042971;28;20035;-66
2022/08/08 13:47:21;;;;;;;5.40;1.52;;;;;;;;;;5037988;28;20029;-66
2022/08/08 13:50:01;;;;;;;6.97;2.10;;;;;;;;;;5037492;28;20528;-65
2022/08/08 13:52:28;;;;;;;8.80;1.88;;;;;;;;;;5041815;28;20032;-66
2022/08/08 13:54:55;;;;;;;8.02;1.73;;;;;;;;;;5043238;28;20128;-65
2022/08/08 13:57:25;;;;;;;9.70;1.95;;;;;;;;;;5040960;28;20434;-65
2022/08/08 13:59:51;;;;;;;7.85;2.10;;;;;;;;;;5044719;28;20470;-66
2022/08/08 14:02:21;;;;;;;6.15;1.70;;;;;;;;;;5041931;28;20369;-66
2022/08/08 14:04:58;;;;;;;5.72;1.83;;;;;;;;;;5042374;28;20028;-66
2022/08/08 14:07:25;;;;;;;8.05;2.03;;;;;;;;;;5040845;28;20525;-65
2022/08/08 14:09:53;;;;;;;6.28;1.70;;;;;;;;;;5039628;28;20748;-67
2022/08/08 14:12:20;;;;;;;8.13;2.00;;;;;;;;;;5037539;28;20031;-67
2022/08/08 14:14:46;;;;;;;6.32;1.90;;;;;;;;;;5038070;28;20037;-68
2022/08/08 14:17:13;;;;;;;5.53;1.60;;;;;;;;;;5037659;28;20461;-67
2022/08/08 14:19:43;;;;;;;6.05;1.73;;;;;;;;;;5044717;28;20036;-68
2022/08/08 14:22:27;;;;;;;5.53;1.48;;;;;;;;;;5038916;28;20033;-68
2022/08/08 14:24:53;;;;;;;;;;;;;;;;;;5040229;28;20052;-68
2022/08/08 14:27:22;;;;;;;10.23;2.50;;;;;;;;;;5039749;28;19975;-67
2022/08/08 14:30:08;;;;;;;6.28;1.83;;;;;;;;;;5044893;28;20438;-69
2022/08/08 14:32:35;;;;;;;6.47;2.08;;;;;;;;;;5038497;28;20122;-67
2022/08/08 14:35:06;;;;;;;11.05;2.20;;;;;;;;;;5041361;28;20067;-67
2022/08/08 14:37:38;;;;;;;7.03;1.70;;;;;;;;;;5036583;28;20033;-67
2022/08/08 14:40:05;;;;;;;7.40;1.80;;;;;;;;;;5040352;28;20047;-67
2022/08/08 14:42:35;;;;;;;7.05;1.90;;;;;;;;;;5041080;28;20032;-67
2022/08/08 14:45:03;;;;;;;8.52;1.80;;;;;;;;;;5041617;28;20287;-67
2022/08/08 14:47:29;;;;;;;5.45;1.70;;;;;;;;;;5039011;28;20962;-67
2022/08/08 14:50:10;;;;;;;6.47;1.38;;;;;;;;;;5041101;28;20086;-67
2022/08/08 14:52:40;;;;;;;6.35;1.70;;;;;;;;;;5040801;28;20035;-68
2022/08/08 14:55:06;;;;;;;8.95;1.88;;;;;;;;;;5037691;28;20470;-67
2022/08/08 14:57:32;;;;;;;5.43;1.70;;;;;;;;;;5037886;28;20040;-67
2022/08/08 14:59:58;;;;;;;5.18;1.50;;;;;;;;;;5039497;28;20494;-65
2022/08/08 15:02:25;;;;;;;7.40;1.95;;;;;;;;;;5035466;28;20036;-66
2022/08/08 15:04:51;;;;;;;6.35;1.80;;;;;;;;;;5037302;28;20040;-65
2022/08/08 15:07:19;;;;;;;6.70;1.90;;;;;;;;;;5042502;28;20028;-66
2022/08/08 15:09:46;;;;;;;7.13;1.92;;;;;;;;;;5040491;28;20058;-66